sensor_id;sensor_type;location;lat;lon;timestamp;pressure;altitude;pressure_sealevel;temperature;humidity
68376;BME280;55318;52.068;5.188;2022-12-11T00:03:08;101184.0;;;2.81;98.22
68376;BME280;55318;52.068;5.188;2022-12-11T00:06:21;101188.0;;;2.94;97.82
68376;BME280;55318;52.068;5.188;2022-12-11T00:07:58;101186.0;;;2.86;98.39
68376;BME280;55318;52.068;5.188;2022-12-11T00:09:35;101181.0;;;2.84;98.5
68376;BME280;55318;52.068;5.188;2022-12-11T00:11:12;101181.0;;;2.9;98.06
68376;BME280;55318;52.068;5.188;2022-12-11T00:14:26;101184.0;;;3.04;97.99
68376;BME280;55318;52.068;5.188;2022-12-11T00:16:02;101189.0;;;2.87;98.25
68376;BME280;55318;52.068;5.188;2022-12-11T00:17:39;101186.0;;;2.86;98.44
68376;BME280;55318;52.068;5.188;2022-12-11T00:20:52;101188.0;;;3.12;97.83
68376;BME280;55318;52.068;5.188;2022-12-11T00:22:29;101193.0;;;3.21;97.23
68376;BME280;55318;52.068;5.188;2022-12-11T00:24:06;101194.0;;;3.35;96.48
68376;BME280;55318;52.068;5.188;2022-12-11T00:25:44;101188.0;;;3.29;96.58
68376;BME280;55318;52.068;5.188;2022-12-11T00:28:59;101188.0;;;3.42;96.37
68376;BME280;55318;52.068;5.188;2022-12-11T00:30:38;101191.0;;;3.32;95.92
68376;BME280;55318;52.068;5.188;2022-12-11T00:32:15;101186.0;;;3.23;96.35
68376;BME280;55318;52.068;5.188;2022-12-11T00:35:27;101189.0;;;3.25;96.66
68376;BME280;55318;52.068;5.188;2022-12-11T00:37:03;101187.0;;;3.23;96.6
68376;BME280;55318;52.068;5.188;2022-12-11T00:38:40;101184.0;;;3.37;96.57
68376;BME280;55318;52.068;5.188;2022-12-11T00:41:53;101183.0;;;3.34;96.21
68376;BME280;55318;52.068;5.188;2022-12-11T00:43:29;101178.0;;;3.3;96.55
68376;BME280;55318;52.068;5.188;2022-12-11T00:45:06;101178.0;;;3.34;96.15
68376;BME280;55318;52.068;5.188;2022-12-11T00:46:42;101181.0;;;3.35;96.22
68376;BME280;55318;52.068;5.188;2022-12-11T00:49:55;101183.0;;;3.2;96.96
68376;BME280;55318;52.068;5.188;2022-12-11T00:51:31;101186.0;;;3.24;96.45
68376;BME280;55318;52.068;5.188;2022-12-11T00:53:07;101186.0;;;3.27;97.25
68376;BME280;55318;52.068;5.188;2022-12-11T00:56:22;101182.0;;;3.52;96.05
68376;BME280;55318;52.068;5.188;2022-12-11T00:57:58;101189.0;;;3.37;96.18
68376;BME280;55318;52.068;5.188;2022-12-11T00:59:35;101181.0;;;3.49;95.71
68376;BME280;55318;52.068;5.188;2022-12-11T01:02:51;101177.0;;;3.45;95.59
68376;BME280;55318;52.068;5.188;2022-12-11T01:04:27;101176.0;;;3.42;95.75
68376;BME280;55318;52.068;5.188;2022-12-11T01:06:05;101172.0;;;3.54;95.25
68376;BME280;55318;52.068;5.188;2022-12-11T01:07:42;101173.0;;;3.65;95.04
68376;BME280;55318;52.068;5.188;2022-12-11T01:12:11;101166.0;;;3.4;95.92
68376;BME280;55318;52.068;5.188;2022-12-11T01:13:47;101166.0;;;3.57;95.48
68376;BME280;55318;52.068;5.188;2022-12-11T01:17:03;101161.0;;;3.42;95.47
68376;BME280;55318;52.068;5.188;2022-12-11T01:18:39;101168.0;;;3.57;95.21
68376;BME280;55318;52.068;5.188;2022-12-11T01:20:17;101167.0;;;3.63;94.96
68376;BME280;55318;52.068;5.188;2022-12-11T01:23:31;101165.0;;;3.61;94.67
68376;BME280;55318;52.068;5.188;2022-12-11T01:25:09;101168.0;;;3.69;94.72
68376;BME280;55318;52.068;5.188;2022-12-11T01:26:46;101167.0;;;3.68;94.32
68376;BME280;55318;52.068;5.188;2022-12-11T01:29:58;101166.0;;;3.68;94.63
68376;BME280;55318;52.068;5.188;2022-12-11T01:31:34;101172.0;;;3.66;94.49
68376;BME280;55318;52.068;5.188;2022-12-11T01:33:10;101174.0;;;3.64;94.61
68376;BME280;55318;52.068;5.188;2022-12-11T01:34:48;101167.0;;;3.84;94.17
68376;BME280;55318;52.068;5.188;2022-12-11T01:38:02;101170.0;;;3.75;94.01
68376;BME280;55318;52.068;5.188;2022-12-11T01:39:38;101173.0;;;3.81;93.9
68376;BME280;55318;52.068;5.188;2022-12-11T01:41:15;101182.0;;;3.68;94.14
68376;BME280;55318;52.068;5.188;2022-12-11T01:45:21;101175.0;;;3.66;94.29
68376;BME280;55318;52.068;5.188;2022-12-11T01:46:59;101169.0;;;3.89;93.77
68376;BME280;55318;52.068;5.188;2022-12-11T01:48:36;101170.0;;;3.86;93.6
68376;BME280;55318;52.068;5.188;2022-12-11T01:50:13;101168.0;;;3.9;93.09
68376;BME280;55318;52.068;5.188;2022-12-11T01:51:56;101166.0;;;3.76;93.19
68376;BME280;55318;52.068;5.188;2022-12-11T01:53:41;101161.0;;;3.84;93.04
68376;BME280;55318;52.068;5.188;2022-12-11T01:57:01;101161.0;;;3.73;93.4
68376;BME280;55318;52.068;5.188;2022-12-11T01:58:45;101164.0;;;3.65;93.67
68376;BME280;55318;52.068;5.188;2022-12-11T02:00:22;101160.0;;;3.82;93.46
68376;BME280;55318;52.068;5.188;2022-12-11T02:02:03;101158.0;;;3.68;93.58
68376;BME280;55318;52.068;5.188;2022-12-11T02:05:18;101153.0;;;3.89;93.28
68376;BME280;55318;52.068;5.188;2022-12-11T02:08:32;101150.0;;;3.86;92.95
68376;BME280;55318;52.068;5.188;2022-12-11T02:11:54;101145.0;;;3.89;92.75
68376;BME280;55318;52.068;5.188;2022-12-11T02:13:43;101144.0;;;3.85;92.53
68376;BME280;55318;52.068;5.188;2022-12-11T02:15:30;101143.0;;;3.78;92.54
68376;BME280;55318;52.068;5.188;2022-12-11T02:17:12;101146.0;;;3.87;92.3
68376;BME280;55318;52.068;5.188;2022-12-11T02:18:55;101146.0;;;3.93;92.05
68376;BME280;55318;52.068;5.188;2022-12-11T02:22:25;101143.0;;;3.93;91.93
68376;BME280;55318;52.068;5.188;2022-12-11T02:24:29;101139.0;;;3.84;92.08
68376;BME280;55318;52.068;5.188;2022-12-11T02:26:36;101135.0;;;3.87;92.15
68376;BME280;55318;52.068;5.188;2022-12-11T02:28:24;101135.0;;;3.82;92.29
68376;BME280;55318;52.068;5.188;2022-12-11T02:30:06;101135.0;;;3.98;91.72
68376;BME280;55318;52.068;5.188;2022-12-11T02:31:46;101134.0;;;4.0;91.68
68376;BME280;55318;52.068;5.188;2022-12-11T02:33:32;101130.0;;;3.9;91.92
68376;BME280;55318;52.068;5.188;2022-12-11T02:36:56;101130.0;;;3.87;92.14
68376;BME280;55318;52.068;5.188;2022-12-11T02:38:40;101130.0;;;3.9;92.0
68376;BME280;55318;52.068;5.188;2022-12-11T02:40:22;101133.0;;;3.84;92.15
68376;BME280;55318;52.068;5.188;2022-12-11T02:42:03;101134.0;;;3.84;92.04
68376;BME280;55318;52.068;5.188;2022-12-11T02:45:19;101134.0;;;3.95;92.02
68376;BME280;55318;52.068;5.188;2022-12-11T02:46:58;101135.0;;;3.95;91.55
68376;BME280;55318;52.068;5.188;2022-12-11T02:48:36;101132.0;;;3.88;91.68
68376;BME280;55318;52.068;5.188;2022-12-11T02:50:17;101134.0;;;3.92;91.48
68376;BME280;55318;52.068;5.188;2022-12-11T02:53:38;101128.0;;;3.86;91.54
68376;BME280;55318;52.068;5.188;2022-12-11T02:55:18;101130.0;;;3.85;91.47
68376;BME280;55318;52.068;5.188;2022-12-11T02:56:59;101125.0;;;3.92;91.43
68376;BME280;55318;52.068;5.188;2022-12-11T02:58:42;101124.0;;;3.97;91.13
68376;BME280;55318;52.068;5.188;2022-12-11T03:01:59;101119.0;;;4.03;91.04
68376;BME280;55318;52.068;5.188;2022-12-11T03:03:36;101118.0;;;3.92;90.75
68376;BME280;55318;52.068;5.188;2022-12-11T03:05:13;101119.0;;;4.0;90.59
68376;BME280;55318;52.068;5.188;2022-12-11T03:06:53;101120.0;;;3.95;90.63
68376;BME280;55318;52.068;5.188;2022-12-11T03:10:16;101117.0;;;3.9;90.62
68376;BME280;55318;52.068;5.188;2022-12-11T03:11:54;101121.0;;;3.83;90.88
68376;BME280;55318;52.068;5.188;2022-12-11T03:13:30;101122.0;;;3.95;90.43
68376;BME280;55318;52.068;5.188;2022-12-11T03:16:53;101118.0;;;3.83;90.87
68376;BME280;55318;52.068;5.188;2022-12-11T03:18:39;101122.0;;;3.71;91.41
68376;BME280;55318;52.068;5.188;2022-12-11T03:20:27;101124.0;;;3.89;90.8
68376;BME280;55318;52.068;5.188;2022-12-11T03:22:11;101118.0;;;3.89;90.93
68376;BME280;55318;52.068;5.188;2022-12-11T03:23:56;101121.0;;;3.92;90.78
68376;BME280;55318;52.068;5.188;2022-12-11T03:25:43;101124.0;;;3.94;90.46
68376;BME280;55318;52.068;5.188;2022-12-11T03:29:14;101126.0;;;3.68;90.16
68376;BME280;55318;52.068;5.188;2022-12-11T03:30:55;101123.0;;;3.86;90.63
68376;BME280;55318;52.068;5.188;2022-12-11T03:32:37;101124.0;;;3.97;90.37
68376;BME280;55318;52.068;5.188;2022-12-11T03:34:19;101121.0;;;3.95;89.91
68376;BME280;55318;52.068;5.188;2022-12-11T03:37:41;101121.0;;;3.87;89.88
68376;BME280;55318;52.068;5.188;2022-12-11T03:39:23;101121.0;;;3.98;89.67
68376;BME280;55318;52.068;5.188;2022-12-11T03:41:03;101124.0;;;3.76;90.13
68376;BME280;55318;52.068;5.188;2022-12-11T03:42:45;101128.0;;;3.98;89.63
68376;BME280;55318;52.068;5.188;2022-12-11T03:44:26;101130.0;;;4.03;89.46
68376;BME280;55318;52.068;5.188;2022-12-11T03:47:45;101125.0;;;4.01;89.15
68376;BME280;55318;52.068;5.188;2022-12-11T03:49:25;101123.0;;;4.05;89.06
68376;BME280;55318;52.068;5.188;2022-12-11T03:51:06;101116.0;;;4.03;88.92
68376;BME280;55318;52.068;5.188;2022-12-11T03:54:23;101122.0;;;3.77;89.31
68376;BME280;55318;52.068;5.188;2022-12-11T03:56:01;101125.0;;;3.88;89.16
68376;BME280;55318;52.068;5.188;2022-12-11T03:57:39;101122.0;;;3.87;88.94
68376;BME280;55318;52.068;5.188;2022-12-11T03:59:16;101117.0;;;3.95;88.9
68376;BME280;55318;52.068;5.188;2022-12-11T04:02:28;101119.0;;;3.93;88.75
68376;BME280;55318;52.068;5.188;2022-12-11T04:04:04;101116.0;;;3.97;88.6
68376;BME280;55318;52.068;5.188;2022-12-11T04:05:43;101120.0;;;3.89;88.73
68376;BME280;55318;52.068;5.188;2022-12-11T04:08:56;101116.0;;;3.81;88.83
68376;BME280;55318;52.068;5.188;2022-12-11T04:10:32;101116.0;;;3.86;88.92
68376;BME280;55318;52.068;5.188;2022-12-11T04:12:08;101114.0;;;3.71;88.81
68376;BME280;55318;52.068;5.188;2022-12-11T04:13:45;101119.0;;;3.84;88.58
68376;BME280;55318;52.068;5.188;2022-12-11T04:16:59;101112.0;;;3.75;88.76
68376;BME280;55318;52.068;5.188;2022-12-11T04:24:28;101110.0;;;3.59;89.7
68376;BME280;55318;52.068;5.188;2022-12-11T04:26:07;101107.0;;;3.77;89.09
68376;BME280;55318;52.068;5.188;2022-12-11T04:27:52;101110.0;;;3.71;88.85
68376;BME280;55318;52.068;5.188;2022-12-11T04:29:28;101103.0;;;3.75;88.87
68376;BME280;55318;52.068;5.188;2022-12-11T04:31:04;101101.0;;;3.85;88.33
68376;BME280;55318;52.068;5.188;2022-12-11T04:32:41;101097.0;;;3.7;88.95
68376;BME280;55318;52.068;5.188;2022-12-11T04:35:56;101093.0;;;3.64;89.28
68376;BME280;55318;52.068;5.188;2022-12-11T04:37:34;101095.0;;;3.71;88.98
68376;BME280;55318;52.068;5.188;2022-12-11T04:39:10;101092.0;;;3.58;89.17
68376;BME280;55318;52.068;5.188;2022-12-11T04:42:22;101092.0;;;3.63;89.13
68376;BME280;55318;52.068;5.188;2022-12-11T04:43:58;101089.0;;;3.76;88.87
68376;BME280;55318;52.068;5.188;2022-12-11T04:45:34;101085.0;;;3.52;89.67
68376;BME280;55318;52.068;5.188;2022-12-11T04:47:11;101091.0;;;3.64;89.66
68376;BME280;55318;52.068;5.188;2022-12-11T04:50:24;101094.0;;;3.67;89.16
68376;BME280;55318;52.068;5.188;2022-12-11T04:52:01;101090.0;;;3.5;89.52
68376;BME280;55318;52.068;5.188;2022-12-11T04:53:38;101090.0;;;3.55;89.48
68376;BME280;55318;52.068;5.188;2022-12-11T04:56:50;101093.0;;;3.6;88.85
68376;BME280;55318;52.068;5.188;2022-12-11T04:58:27;101093.0;;;3.42;89.43
68376;BME280;55318;52.068;5.188;2022-12-11T05:00:06;101094.0;;;3.61;88.82
68376;BME280;55318;52.068;5.188;2022-12-11T05:03:22;101099.0;;;3.68;88.42
68376;BME280;55318;52.068;5.188;2022-12-11T05:04:59;101101.0;;;3.56;88.04
68376;BME280;55318;52.068;5.188;2022-12-11T05:06:35;101100.0;;;3.79;87.68
68376;BME280;55318;52.068;5.188;2022-12-11T05:08:11;101103.0;;;3.7;87.45
68376;BME280;55318;52.068;5.188;2022-12-11T05:11:23;101106.0;;;3.8;87.31
68376;BME280;55318;52.068;5.188;2022-12-11T05:13:00;101107.0;;;3.7;87.25
68376;BME280;55318;52.068;5.188;2022-12-11T05:14:36;101103.0;;;3.74;87.12
68376;BME280;55318;52.068;5.188;2022-12-11T05:17:53;101105.0;;;3.87;86.88
68376;BME280;55318;52.068;5.188;2022-12-11T05:19:28;101097.0;;;3.56;87.2
68376;BME280;55318;52.068;5.188;2022-12-11T05:21:07;101098.0;;;3.82;87.22
68376;BME280;55318;52.068;5.188;2022-12-11T05:22:45;101092.0;;;3.58;87.4
68376;BME280;55318;52.068;5.188;2022-12-11T05:26:00;101092.0;;;3.56;87.51
68376;BME280;55318;52.068;5.188;2022-12-11T05:27:38;101092.0;;;3.58;87.51
68376;BME280;55318;52.068;5.188;2022-12-11T05:29:14;101089.0;;;3.45;87.9
68376;BME280;55318;52.068;5.188;2022-12-11T05:32:31;101090.0;;;3.52;87.71
68376;BME280;55318;52.068;5.188;2022-12-11T05:34:07;101092.0;;;3.67;87.52
68376;BME280;55318;52.068;5.188;2022-12-11T05:35:46;101095.0;;;3.63;87.4
68376;BME280;55318;52.068;5.188;2022-12-11T05:37:23;101094.0;;;3.59;88.15
68376;BME280;55318;52.068;5.188;2022-12-11T05:40:37;101091.0;;;3.63;87.71
68376;BME280;55318;52.068;5.188;2022-12-11T05:42:13;101096.0;;;3.71;87.38
68376;BME280;55318;52.068;5.188;2022-12-11T05:43:50;101092.0;;;3.62;87.4
68376;BME280;55318;52.068;5.188;2022-12-11T05:47:03;101096.0;;;3.59;87.89
68376;BME280;55318;52.068;5.188;2022-12-11T05:48:39;101095.0;;;3.55;87.59
68376;BME280;55318;52.068;5.188;2022-12-11T05:50:17;101094.0;;;3.66;87.49
68376;BME280;55318;52.068;5.188;2022-12-11T05:53:29;101090.0;;;3.68;87.26
68376;BME280;55318;52.068;5.188;2022-12-11T05:55:08;101082.0;;;3.8;86.87
68376;BME280;55318;52.068;5.188;2022-12-11T05:56:45;101080.0;;;3.73;86.69
68376;BME280;55318;52.068;5.188;2022-12-11T05:58:22;101074.0;;;3.75;86.76
68376;BME280;55318;52.068;5.188;2022-12-11T06:01:37;101078.0;;;3.73;86.47
68376;BME280;55318;52.068;5.188;2022-12-11T06:03:14;101074.0;;;3.66;86.87
68376;BME280;55318;52.068;5.188;2022-12-11T06:04:50;101076.0;;;3.63;87.08
68376;BME280;55318;52.068;5.188;2022-12-11T06:08:04;101080.0;;;3.72;87.03
68376;BME280;55318;52.068;5.188;2022-12-11T06:09:41;101080.0;;;3.66;87.18
68376;BME280;55318;52.068;5.188;2022-12-11T06:11:18;101078.0;;;3.54;87.12
68376;BME280;55318;52.068;5.188;2022-12-11T06:14:31;101083.0;;;3.63;87.11
68376;BME280;55318;52.068;5.188;2022-12-11T06:16:08;101086.0;;;3.74;86.58
68376;BME280;55318;52.068;5.188;2022-12-11T06:17:45;101085.0;;;3.67;86.87
68376;BME280;55318;52.068;5.188;2022-12-11T06:19:22;101086.0;;;3.73;86.62
68376;BME280;55318;52.068;5.188;2022-12-11T06:22:35;101084.0;;;3.64;86.97
68376;BME280;55318;52.068;5.188;2022-12-11T06:24:11;101087.0;;;3.67;86.73
68376;BME280;55318;52.068;5.188;2022-12-11T06:25:47;101086.0;;;3.7;86.96
68376;BME280;55318;52.068;5.188;2022-12-11T06:28:59;101086.0;;;3.69;86.41
68376;BME280;55318;52.068;5.188;2022-12-11T06:30:37;101085.0;;;3.71;86.47
68376;BME280;55318;52.068;5.188;2022-12-11T06:32:14;101089.0;;;3.51;87.18
68376;BME280;55318;52.068;5.188;2022-12-11T06:35:26;101090.0;;;3.64;86.8
68376;BME280;55318;52.068;5.188;2022-12-11T06:37:03;101089.0;;;3.65;86.65
68376;BME280;55318;52.068;5.188;2022-12-11T06:38:39;101096.0;;;3.55;86.28
68376;BME280;55318;52.068;5.188;2022-12-11T06:40:16;101097.0;;;3.68;86.23
68376;BME280;55318;52.068;5.188;2022-12-11T06:43:30;101098.0;;;3.72;86.08
68376;BME280;55318;52.068;5.188;2022-12-11T06:45:08;101093.0;;;3.62;85.86
68376;BME280;55318;52.068;5.188;2022-12-11T06:46:44;101095.0;;;3.65;86.02
68376;BME280;55318;52.068;5.188;2022-12-11T06:49:56;101093.0;;;3.67;85.7
68376;BME280;55318;52.068;5.188;2022-12-11T06:51:33;101094.0;;;3.63;86.03
68376;BME280;55318;52.068;5.188;2022-12-11T06:53:10;101096.0;;;3.63;86.01
68376;BME280;55318;52.068;5.188;2022-12-11T06:54:48;101094.0;;;3.59;86.02
68376;BME280;55318;52.068;5.188;2022-12-11T06:58:01;101096.0;;;3.48;85.99
68376;BME280;55318;52.068;5.188;2022-12-11T06:59:37;101093.0;;;3.71;85.6
68376;BME280;55318;52.068;5.188;2022-12-11T07:02:52;101094.0;;;3.65;85.87
68376;BME280;55318;52.068;5.188;2022-12-11T07:04:29;101094.0;;;3.59;85.78
68376;BME280;55318;52.068;5.188;2022-12-11T07:06:06;101096.0;;;3.59;85.19
68376;BME280;55318;52.068;5.188;2022-12-11T07:07:43;101097.0;;;3.57;85.85
68376;BME280;55318;52.068;5.188;2022-12-11T07:11:01;101094.0;;;3.64;85.62
68376;BME280;55318;52.068;5.188;2022-12-11T07:12:38;101103.0;;;3.77;85.18
68376;BME280;55318;52.068;5.188;2022-12-11T07:14:15;101102.0;;;3.74;85.07
68376;BME280;55318;52.068;5.188;2022-12-11T07:15:51;101101.0;;;3.62;84.95
68376;BME280;55318;52.068;5.188;2022-12-11T07:19:04;101105.0;;;3.63;85.39
68376;BME280;55318;52.068;5.188;2022-12-11T07:20:40;101111.0;;;3.7;85.2
68376;BME280;55318;52.068;5.188;2022-12-11T07:22:16;101107.0;;;3.65;85.05
68376;BME280;55318;52.068;5.188;2022-12-11T07:25:29;101102.0;;;3.6;85.31
68376;BME280;55318;52.068;5.188;2022-12-11T07:27:05;101109.0;;;3.69;84.52
68376;BME280;55318;52.068;5.188;2022-12-11T07:28:42;101105.0;;;3.64;84.6
68376;BME280;55318;52.068;5.188;2022-12-11T07:31:55;101102.0;;;3.53;84.58
68376;BME280;55318;52.068;5.188;2022-12-11T07:33:31;101110.0;;;3.67;84.23
68376;BME280;55318;52.068;5.188;2022-12-11T07:35:08;101107.0;;;3.41;85.52
68376;BME280;55318;52.068;5.188;2022-12-11T07:36:44;101110.0;;;3.14;85.94
68376;BME280;55318;52.068;5.188;2022-12-11T07:39:57;101108.0;;;3.02;86.19
68376;BME280;55318;52.068;5.188;2022-12-11T07:41:34;101107.0;;;3.08;86.41
68376;BME280;55318;52.068;5.188;2022-12-11T07:43:10;101107.0;;;3.11;86.58
68376;BME280;55318;52.068;5.188;2022-12-11T07:46:24;101110.0;;;3.21;86.77
68376;BME280;55318;52.068;5.188;2022-12-11T07:48:03;101110.0;;;3.21;86.19
68376;BME280;55318;52.068;5.188;2022-12-11T07:49:40;101114.0;;;3.29;85.98
68376;BME280;55318;52.068;5.188;2022-12-11T07:51:18;101115.0;;;3.04;86.11
68376;BME280;55318;52.068;5.188;2022-12-11T07:54:32;101119.0;;;3.04;86.26
68376;BME280;55318;52.068;5.188;2022-12-11T07:56:08;101117.0;;;2.92;86.87
68376;BME280;55318;52.068;5.188;2022-12-11T07:57:44;101118.0;;;3.04;86.97
68376;BME280;55318;52.068;5.188;2022-12-11T08:00:57;101118.0;;;3.09;87.24
68376;BME280;55318;52.068;5.188;2022-12-11T08:02:34;101122.0;;;2.92;87.88
68376;BME280;55318;52.068;5.188;2022-12-11T08:04:11;101121.0;;;3.01;87.91
68376;BME280;55318;52.068;5.188;2022-12-11T08:07:24;101133.0;;;2.96;88.21
68376;BME280;55318;52.068;5.188;2022-12-11T08:09:03;101133.0;;;3.14;87.45
68376;BME280;55318;52.068;5.188;2022-12-11T08:10:40;101130.0;;;3.17;86.79
68376;BME280;55318;52.068;5.188;2022-12-11T08:12:16;101130.0;;;3.15;86.21
68376;BME280;55318;52.068;5.188;2022-12-11T08:15:29;101126.0;;;3.21;86.24
68376;BME280;55318;52.068;5.188;2022-12-11T08:17:05;101128.0;;;3.21;85.33
68376;BME280;55318;52.068;5.188;2022-12-11T08:18:43;101127.0;;;2.75;86.83
68376;BME280;55318;52.068;5.188;2022-12-11T08:21:56;101128.0;;;2.86;87.3
68376;BME280;55318;52.068;5.188;2022-12-11T08:23:32;101127.0;;;2.65;87.5
68376;BME280;55318;52.068;5.188;2022-12-11T08:25:09;101128.0;;;2.71;87.88
68376;BME280;55318;52.068;5.188;2022-12-11T08:28:23;101130.0;;;2.6;88.33
68376;BME280;55318;52.068;5.188;2022-12-11T08:30:00;101128.0;;;2.65;88.83
68376;BME280;55318;52.068;5.188;2022-12-11T08:31:36;101126.0;;;2.68;88.59
68376;BME280;55318;52.068;5.188;2022-12-11T08:33:14;101128.0;;;2.8;88.03
68376;BME280;55318;52.068;5.188;2022-12-11T08:36:26;101127.0;;;2.79;87.94
68376;BME280;55318;52.068;5.188;2022-12-11T08:38:04;101126.0;;;2.74;88.11
68376;BME280;55318;52.068;5.188;2022-12-11T08:39:40;101124.0;;;2.71;88.42
68376;BME280;55318;52.068;5.188;2022-12-11T08:42:55;101123.0;;;2.86;87.86
68376;BME280;55318;52.068;5.188;2022-12-11T08:44:31;101118.0;;;2.79;88.09
68376;BME280;55318;52.068;5.188;2022-12-11T08:46:08;101125.0;;;2.83;87.75
68376;BME280;55318;52.068;5.188;2022-12-11T08:47:44;101124.0;;;2.9;87.9
68376;BME280;55318;52.068;5.188;2022-12-11T08:50:58;101114.0;;;2.92;87.58
68376;BME280;55318;52.068;5.188;2022-12-11T08:52:35;101111.0;;;2.91;87.69
68376;BME280;55318;52.068;5.188;2022-12-11T08:54:11;101112.0;;;2.93;88.36
68376;BME280;55318;52.068;5.188;2022-12-11T08:57:24;101111.0;;;2.93;87.51
68376;BME280;55318;52.068;5.188;2022-12-11T08:59:00;101108.0;;;3.17;87.14
68376;BME280;55318;52.068;5.188;2022-12-11T09:00:37;101105.0;;;3.24;86.48
68376;BME280;55318;52.068;5.188;2022-12-11T09:03:51;101105.0;;;3.24;86.58
68376;BME280;55318;52.068;5.188;2022-12-11T09:05:28;101106.0;;;3.31;86.18
68376;BME280;55318;52.068;5.188;2022-12-11T09:07:04;101103.0;;;3.28;86.01
68376;BME280;55318;52.068;5.188;2022-12-11T09:08:42;101103.0;;;3.03;86.15
68376;BME280;55318;52.068;5.188;2022-12-11T09:11:56;101103.0;;;2.98;86.81
68376;BME280;55318;52.068;5.188;2022-12-11T09:13:32;101099.0;;;2.96;87.12
68376;BME280;55318;52.068;5.188;2022-12-11T09:15:10;101103.0;;;2.99;87.29
68376;BME280;55318;52.068;5.188;2022-12-11T09:18:22;101101.0;;;2.94;87.29
68376;BME280;55318;52.068;5.188;2022-12-11T09:19:59;101105.0;;;3.0;87.45
68376;BME280;55318;52.068;5.188;2022-12-11T09:21:35;101102.0;;;3.19;86.66
68376;BME280;55318;52.068;5.188;2022-12-11T09:24:47;101101.0;;;3.23;86.83
68376;BME280;55318;52.068;5.188;2022-12-11T09:26:25;101098.0;;;3.24;86.94
68376;BME280;55318;52.068;5.188;2022-12-11T09:28:02;101098.0;;;3.17;87.07
68376;BME280;55318;52.068;5.188;2022-12-11T09:29:38;101098.0;;;3.26;87.09
68376;BME280;55318;52.068;5.188;2022-12-11T09:32:54;101102.0;;;3.11;87.38
68376;BME280;55318;52.068;5.188;2022-12-11T09:34:30;101097.0;;;2.95;87.62
68376;BME280;55318;52.068;5.188;2022-12-11T09:36:07;101092.0;;;2.91;87.55
68376;BME280;55318;52.068;5.188;2022-12-11T09:39:20;101091.0;;;2.98;87.89
68376;BME280;55318;52.068;5.188;2022-12-11T09:42:45;101092.0;;;2.91;88.4
68376;BME280;55318;52.068;5.188;2022-12-11T09:44:31;101095.0;;;2.94;88.73
68376;BME280;55318;52.068;5.188;2022-12-11T09:47:54;101093.0;;;2.93;88.37
68376;BME280;55318;52.068;5.188;2022-12-11T09:49:36;101089.0;;;3.06;88.67
68376;BME280;55318;52.068;5.188;2022-12-11T09:51:21;101088.0;;;3.05;88.9
68376;BME280;55318;52.068;5.188;2022-12-11T09:53:11;101089.0;;;2.88;89.41
68376;BME280;55318;52.068;5.188;2022-12-11T09:54:53;101089.0;;;3.06;88.97
68376;BME280;55318;52.068;5.188;2022-12-11T09:58:22;101091.0;;;3.07;88.67
68376;BME280;55318;52.068;5.188;2022-12-11T10:00:11;101089.0;;;3.0;89.16
68376;BME280;55318;52.068;5.188;2022-12-11T10:01:54;101089.0;;;2.95;89.22
68376;BME280;55318;52.068;5.188;2022-12-11T10:03:47;101086.0;;;3.06;89.49
68376;BME280;55318;52.068;5.188;2022-12-11T10:05:36;101083.0;;;3.07;88.77
68376;BME280;55318;52.068;5.188;2022-12-11T10:07:20;101089.0;;;3.21;88.38
68376;BME280;55318;52.068;5.188;2022-12-11T10:10:57;101088.0;;;3.13;88.42
68376;BME280;55318;52.068;5.188;2022-12-11T10:12:45;101089.0;;;3.24;87.68
68376;BME280;55318;52.068;5.188;2022-12-11T10:14:38;101082.0;;;3.29;87.42
68376;BME280;55318;52.068;5.188;2022-12-11T10:16:25;101092.0;;;3.13;88.31
68376;BME280;55318;52.068;5.188;2022-12-11T10:18:10;101080.0;;;3.33;87.91
68376;BME280;55318;52.068;5.188;2022-12-11T10:19:50;101080.0;;;3.39;87.39
68376;BME280;55318;52.068;5.188;2022-12-11T10:23:17;101080.0;;;3.36;86.94
68376;BME280;55318;52.068;5.188;2022-12-11T10:24:58;101084.0;;;3.41;87.08
68376;BME280;55318;52.068;5.188;2022-12-11T10:26:36;101080.0;;;3.54;87.4
68376;BME280;55318;52.068;5.188;2022-12-11T10:28:16;101083.0;;;3.49;86.99
68376;BME280;55318;52.068;5.188;2022-12-11T10:31:42;101075.0;;;3.25;87.9
68376;BME280;55318;52.068;5.188;2022-12-11T10:33:29;101073.0;;;3.27;87.9
68376;BME280;55318;52.068;5.188;2022-12-11T10:35:17;101074.0;;;3.37;87.61
68376;BME280;55318;52.068;5.188;2022-12-11T10:36:55;101070.0;;;3.25;87.98
68376;BME280;55318;52.068;5.188;2022-12-11T10:40:17;101075.0;;;3.02;88.54
68376;BME280;55318;52.068;5.188;2022-12-11T10:41:55;101071.0;;;3.08;89.14
68376;BME280;55318;52.068;5.188;2022-12-11T10:43:34;101068.0;;;3.32;88.33
68376;BME280;55318;52.068;5.188;2022-12-11T10:45:14;101071.0;;;3.4;88.17
68376;BME280;55318;52.068;5.188;2022-12-11T10:48:44;101072.0;;;3.41;88.59
68376;BME280;55318;52.068;5.188;2022-12-11T10:50:23;101065.0;;;3.24;88.75
68376;BME280;55318;52.068;5.188;2022-12-11T10:52:01;101064.0;;;3.18;89.07
68376;BME280;55318;52.068;5.188;2022-12-11T10:53:49;101063.0;;;3.16;89.45
68376;BME280;55318;52.068;5.188;2022-12-11T10:55:27;101060.0;;;3.36;89.46
68376;BME280;55318;52.068;5.188;2022-12-11T10:58:48;101061.0;;;3.38;88.59
68376;BME280;55318;52.068;5.188;2022-12-11T11:00:29;101064.0;;;3.34;89.01
68376;BME280;55318;52.068;5.188;2022-12-11T11:02:18;101064.0;;;3.32;89.32
68376;BME280;55318;52.068;5.188;2022-12-11T11:03:58;101062.0;;;3.29;89.45
68376;BME280;55318;52.068;5.188;2022-12-11T11:07:18;101064.0;;;3.43;89.1
68376;BME280;55318;52.068;5.188;2022-12-11T11:08:58;101057.0;;;3.5;88.71
68376;BME280;55318;52.068;5.188;2022-12-11T11:10:35;101056.0;;;3.59;88.37
68376;BME280;55318;52.068;5.188;2022-12-11T11:12:21;101055.0;;;3.52;88.34
68376;BME280;55318;52.068;5.188;2022-12-11T11:15:59;101053.0;;;3.41;88.69
68376;BME280;55318;52.068;5.188;2022-12-11T11:17:41;101048.0;;;3.28;89.0
68376;BME280;55318;52.068;5.188;2022-12-11T11:19:22;101048.0;;;3.51;88.56
68376;BME280;55318;52.068;5.188;2022-12-11T11:21:00;101047.0;;;3.55;88.55
68376;BME280;55318;52.068;5.188;2022-12-11T11:22:38;101048.0;;;3.56;88.17
68376;BME280;55318;52.068;5.188;2022-12-11T11:26:06;101049.0;;;3.58;87.99
68376;BME280;55318;52.068;5.188;2022-12-11T11:27:46;101051.0;;;3.86;87.32